Tiempo atmosférico en la estación meteorológica de Loja, Granada (580 m.)



Fecha
DESCASC
Temp. máxima en grados centígrados (hora)
DESCASC
Temp. mínima en grados centígrados (hora)
DESCASC
Temp. media en grados centígrados
DESCASC
Racha de viento máxima en m/sg (hora)
DESCASC
Velocidad máxima media en intervalos de 10 minutos(hora)
DESCASC
Precipitaciones diarias en mm
DESCASC
Precipitaciones de 00:00 a 06:00 en mm
DESCASC
Precipitaciones de 06:00 a 12:00 en mm
DESCASC
Precipitaciones de 12:00 a 18:00 en mm
DESCASC
Precipitaciones de 18:00 a 24:00 en mm
DESCASC
14-12-2019 -- (--) -- (--) -- -- (--) -- (--) -- 0 -- -- --
13-12-2019 13.5 (08:20) 9.1 (00:20) 11.3 14.72 (09:40) 5.83 (01:00) 3.8 3.3 0.5 0 0
12-12-2019 12 (23:40) 3.6 (08:10) 7.8 14.72 (22:00) 6.94 (22:00) 0.2 0 0 0 0.2
11-12-2019 14.1 (15:10) 2.3 (00:00) 8.2 8.61 (18:20) 3.61 (15:40) 0 0 0 0 0
10-12-2019 17.8 (15:00) 4.9 (00:00) 11.3 8.89 (06:00) 4.17 (05:50) 0 0 0 0 0
09-12-2019 16.7 (16:00) 8.7 (00:00) 12.7 5.28 (01:10) 2.78 (15:10) 0 0 0 0 0
08-12-2019 16.2 (15:10) 4.2 (00:00) 10.2 6.11 (19:50) 3.06 (15:30) 0 0 0 0 0
07-12-2019 18.1 (15:00) 6.9 (00:00) 12.5 7.78 (00:30) 3.33 (00:40) 0 0 0 0 0
06-12-2019 16.9 (15:10) 6.5 (00:00) 11.7 9.44 (10:30) 4.17 (10:40) 0.1 0 0.1 0 0
05-12-2019 -- (--) -- (--) -- -- (--) -- (--) -- -- -- -- 0.2
04-12-2019 -- (--) -- (--) -- -- (--) -- (--) -- -- -- -- --
03-12-2019 -- (--) -- (--) -- -- (--) -- (--) -- -- -- -- --
02-12-2019 -- (--) -- (--) -- -- (--) -- (--) -- 0.4 -- -- --
01-12-2019 -- (--) -- (--) -- -- (--) -- (--) -- -- -- 0.2 4.7
30-11-2019 -- (--) -- (--) -- -- (--) -- (--) -- -- -- -- --
29-11-2019 -- (--) -- (--) -- -- (--) -- (--) -- 0 0 0 --
28-11-2019 15.1 (15:30) 7.3 (00:00) 11.2 -- (--) -- (--) 0 0 0 0 0
27-11-2019 15.9 (13:10) 11.8 (00:00) 13.8 10 (14:50) 4.44 (15:20) 0.3 0.2 0.1 0 0
26-11-2019 15.3 (16:40) 10.9 (00:00) 13.1 9.44 (21:00) 3.33 (20:50) 0.1 0.1 0 0 0
25-11-2019 12.6 (18:10) 6.8 (00:00) 9.7 4.72 (07:40) 1.67 (05:30) 4.6 0 0.5 2.9 1.2
24-11-2019 13.5 (14:30) 4.7 (00:00) 9.1 6.94 (00:20) 3.33 (01:00) 0 0 0 0 0
23-11-2019 12.9 (05:30) 7.8 (00:00) 10.3 16.67 (06:20) 6.11 (00:20) 2.9 0.6 2.3 0 0
22-11-2019 17.7 (17:50) 10.6 (00:00) 14.2 16.39 (20:30) 6.39 (20:30) 25.5 0.2 11.7 1.9 11.7
21-11-2019 14.8 (20:20) 7 (00:00) 10.9 6.11 (09:50) 2.22 (09:40) 5.5 2.7 0.8 1.2 0.8
20-11-2019 11.3 (16:20) 2.5 (00:00) 6.9 6.39 (16:30) 3.33 (02:00) 2.6 0 0 2.5 0.1
19-11-2019 14.1 (16:00) 1.8 (00:00) 8 7.5 (09:10) 3.06 (04:00) 0 0 0 0 0
18-11-2019 14.4 (01:10) 4.2 (00:00) 9.3 14.17 (02:50) 5.56 (02:50) 22.2 22 0.2 0 0
17-11-2019 14.4 (21:00) -0.9 (05:50) 6.7 14.17 (22:10) 6.39 (22:10) 2.1 0 0 1.3 0.8
16-11-2019 10.7 (14:10) 0.3 (07:50) 5.5 6.39 (13:50) 2.78 (14:20) 0 0 0 0 0
15-11-2019 8.6 (12:20) 2.3 (23:00) 5.5 14.17 (02:00) 5.56 (00:40) 0.5 0 0 0.5 0

Gráficas

Temp. máximas Temp. mínimas Temp. medias Precipitaciones Rachas de viento máximas Velocidades máximas media en intervalos de 10 minutos

Datos horarios

Fecha y hora oficial Temperatura (ºC) Velocidad del viento (km/h) Dirección del viento Racha (km/h) Dirección de racha Precipitación (mm) Presión (hPa) Tendencia (hPa) Humedad (%)
2019-12-14 23:00:00 -- -- -- -- -- -- -- -- --
2019-12-14 22:00:00 -- -- -- -- -- -- -- -- --
2019-12-14 21:00:00 -- -- -- -- -- -- -- -- --
2019-12-14 20:00:00 -- -- -- -- -- -- -- -- --
2019-12-14 19:00:00 -- -- -- -- -- -- -- -- --
2019-12-14 18:00:00 -- -- -- -- -- -- -- -- --
2019-12-14 17:00:00 -- -- -- -- -- -- -- -- --
2019-12-14 16:00:00 -- -- -- -- -- -- -- -- --
2019-12-14 15:00:00 -- -- -- -- -- -- -- -- --
2019-12-14 14:00:00 -- -- -- -- -- -- -- -- --
2019-12-14 13:00:00 -- -- -- -- -- -- -- -- --
2019-12-14 12:00:00 -- -- -- -- -- -- -- -- --
2019-12-14 11:00:00 -- -- -- -- -- -- -- -- --
2019-12-14 10:00:00 -- -- -- -- -- -- -- -- --
2019-12-14 09:00:00 -- -- -- -- -- -- -- -- --
2019-12-14 08:00:00 10.7 4 Noroeste 9 Noroeste 0 952.1 0.1 84
2019-12-14 07:00:00 10.2 0 Calma 7 Nordeste 0 951.8 -0.7 83
2019-12-14 06:00:00 10.5 0 Calma 8 Oeste 0 951.7 -1.2 82
2019-12-14 05:00:00 11 3 Oeste 9 Oeste 0 952 -1.1 78
2019-12-14 04:00:00 11 0 Calma 18 Noroeste 0 952.5 -0.7 74
2019-12-14 03:00:00 11.4 3 Oeste 14 Noroeste 0 952.9 -0.7 74
2019-12-14 02:00:00 10.8 0 Calma 15 Oeste 0 953.1 -0.2 78
2019-12-14 01:00:00 11.7 4 Oeste 24 Oeste 0 953.2 -0.3 74
2019-12-14 00:00:00 12.1 4 Oeste 13 Noroeste 0 953.6 0.2 74
2019-12-13 23:00:00 11.8 5 Oeste 15 Oeste 0 953.3 -0.1 79
2019-12-13 22:00:00 12.3 6 Oeste 15 Oeste 0 953.5 0.5 72
2019-12-13 21:00:00 12.4 6 Oeste 31 Oeste 0 953.4 0.7 69
2019-12-13 20:00:00 12.7 10 Oeste 25 Oeste 0 953.4 0.7 66
2019-12-13 19:00:00 12.5 6 Oeste 29 Oeste 0 953 0.5 68
2019-12-13 18:00:00 12.7 11 Oeste 30 Oeste 0 952.7 0.2 66
2019-12-13 17:00:00 12.9 11 Oeste 30 Oeste 0 952.7 -0.1 63
2019-12-13 16:00:00 12.8 12 Oeste 38 Oeste 0 952.5 -0.7 65
2019-12-13 15:00:00 12.6 15 Oeste 38 Oeste 0 952.5 -1.1 66
2019-12-13 14:00:00 12.6 16 Oeste 40 Oeste 0 952.8 -0.5 65
2019-12-13 13:00:00 12.2 15 Oeste 42 Oeste 0 953.2 0.7 66
2019-12-13 12:00:00 11.9 13 Oeste 42 Oeste 0 953.6 1.6 70
2019-12-13 11:00:00 12 15 Oeste 44 Oeste 0 953.3 3.8 67
2019-12-13 10:00:00 11.9 18 Oeste 53 Oeste 0 952.5 2.7 67
2019-12-13 09:00:00 11.6 14 Oeste 46 Sudoeste 0.1 952 2.7 76
2019-12-13 08:00:00 11.4 15 Oeste 42 Oeste 0.3 949.5 0.7 83
2019-12-13 07:00:00 11.1 16 Oeste 51 Oeste 0.1 949.8 0.7 81
2019-12-13 06:00:00 11.5 14 Oeste 49 Oeste 0.5 949.3 -0.8 83
2019-12-13 05:00:00 11.4 12 Oeste 40 Noroeste 0.5 948.8 -0.7 83
2019-12-13 04:00:00 11.2 14 Oeste 40 Oeste 0.5 949.1 -2.2 84
2019-12-13 03:00:00 11.9 10 Oeste 44 Oeste 0.6 950.1 -1.5 83
2019-12-13 02:00:00 11.2 16 Oeste 44 Oeste 0.9 949.5 -3.2 83
2019-12-13 01:00:00 10.3 21 Oeste 47 Oeste 0.3 951.3 -1 80
2019-12-13 00:00:00 9.3 17 Oeste 46 Oeste 0.2 951.6 -1.1 80
2019-12-12 23:00:00 10.6 18 Oeste 53 Oeste 0 952.7 -0.5 69
2019-12-12 22:00:00 11.4 25 Oeste 53 Oeste 0 952.3 -1 62
2019-12-12 21:00:00 10.5 15 Oeste 45 Oeste 0 952.7 -0.5 64
2019-12-12 20:00:00 10.4 14 Oeste 36 Oeste 0 953.2 -0.1 57
2019-12-12 19:00:00 10.1 12 Oeste 35 Oeste 0 953.3 -0.5 59
2019-12-12 18:00:00 9.9 12 Oeste 33 Oeste 0 953.2 -0.5 61
2019-12-12 17:00:00 10 14 Oeste 34 Oeste 0 953.3 -1.1 57
2019-12-12 16:00:00 10 12 Noroeste 34 Noroeste 0 953.8 -1.8 54
2019-12-12 15:00:00 10.4 14 Noroeste 32 Oeste 0 953.7 -3.4 49
2019-12-12 14:00:00 9.8 12 Noroeste 23 Noroeste 0 954.4 -2.7 49
2019-12-12 13:00:00 10.2 8 Oeste 18 Noroeste 0 955.6 -0.7 48
2019-12-12 12:00:00 8.8 4 Norte 10 Noroeste 0 957.1 0.2 56
2019-12-12 11:00:00 6.1 2 Nordeste 8 Sudoeste 0 957.1 1.2 69
2019-12-12 10:00:00 4.6 0 Calma 10 Sudoeste 0 956.3 0.4 72
2019-12-12 09:00:00 4.2 4 Sudoeste 15 Oeste 0 956.9 1.1 81
2019-12-12 08:00:00 4.1 5 Oeste 15 Noroeste 0 955.9 0 81
2019-12-12 07:00:00 4.6 7 Noroeste 24 Oeste 0 955.9 -0.3 78
2019-12-12 06:00:00 6.3 10 Oeste 23 Oeste 0 955.8 -0.5 66
2019-12-12 05:00:00 7.7 9 Oeste 26 Oeste 0 955.9 -0.5 61
2019-12-12 04:00:00 7.9 8 Oeste 22 Oeste 0 956.2 -0.4 70
2019-12-12 03:00:00 4.2 5 Oeste 15 Noroeste 0 956.3 -1.4 84
2019-12-12 02:00:00 6 0 Calma 6 Oeste 0 956.4 -1 81
2019-12-12 01:00:00 7.5 4 Sudeste 8 Sudeste 0 956.6 -0.5 78
2019-12-12 00:00:00 8.2 2 Sudoeste 8 Sudoeste 0 957.7 0.9 72
2019-12-11 23:00:00 9.2 3 Oeste 12 Oeste 0 957.4 0.6 74
2019-12-11 22:00:00 9.6 6 Oeste 20 Oeste 0 957.1 0.9 72
2019-12-11 21:00:00 9.7 5 Oeste 28 Oeste 0 956.8 1.2 72
2019-12-11 20:00:00 10.7 8 Oeste 26 Oeste 0 956.8 2.3 67
2019-12-11 19:00:00 11.4 10 Oeste 31 Oeste 0 956.2 2.4 54
2019-12-11 18:00:00 12.1 10 Oeste 29 Oeste 0 955.6 1.7 49
2019-12-11 17:00:00 12.8 12 Oeste 27 Oeste 0 954.5 -0.2 45
2019-12-11 16:00:00 13.4 10 Oeste 31 Oeste 0 953.8 -1.8 36
2019-12-11 15:00:00 13.8 10 Oeste 26 Oeste 0 953.9 -2.6 27
2019-12-11 14:00:00 13.5 9 Oeste 22 Noroeste 0 954.7 -1.9 36
2019-12-11 13:00:00 13 3 Noroeste 14 Noroeste 0 955.6 -0.9 43
2019-12-11 12:00:00 9.6 0 Calma 7 Este 0 956.5 0.2 49
2019-12-11 11:00:00 6.2 0 Calma 5 Norte 0 956.6 0.6 61
2019-12-11 10:00:00 3.4 0 Calma 6 Sudoeste 0 956.5 0.9 75
2019-12-11 09:00:00 3.1 0 Calma 13 Sudeste 0 956.3 0.8 70
2019-12-11 08:00:00 3.7 0 Calma 12 Este 0 956 0.4 69
2019-12-11 07:00:00 3.7 0 Calma 10 Norte 0 955.6 -0.2 70
2019-12-11 06:00:00 4.3 0 Calma 9 Sudeste 0 955.5 -0.3 68
2019-12-11 05:00:00 5 2 Este 15 Sudeste 0 955.6 -0.5 62
2019-12-11 04:00:00 5.1 2 Este 15 Este 0 955.8 -0.6 64
2019-12-11 03:00:00 5.3 0 Calma 6 Sudeste 0 955.8 -1 69
2019-12-11 02:00:00 5.4 0 Calma 4 Norte 0 956.1 -0.3 66
2019-12-11 01:00:00 6.3 0 Calma 4 Sudeste 0 956.4 0.1 61
2019-12-11 00:00:00 7 0 Calma 4 Sudeste 0 956.8 0.4 54
2019-12-10 23:00:00 8.5 0 Calma 8 Sudoeste 0 956.4 -0.1 45
2019-12-10 22:00:00 10.4 5 Sudoeste 13 Oeste 0 956.3 0.4 40
2019-12-10 21:00:00 11.7 7 Oeste 17 Oeste 0 956.4 0.9 35
2019-12-10 20:00:00 12.8 8 Oeste 17 Oeste 0 956.5 1.1 32
2019-12-10 19:00:00 13.3 10 Oeste 19 Oeste 0 955.9 0.4 27
2019-12-10 18:00:00 15 8 Oeste 19 Oeste 0 955.5 -0.5 21
2019-12-10 17:00:00 16 10 Oeste 21 Oeste 0 955.4 -1 22
2019-12-10 16:00:00 16.4 9 Oeste 17 Oeste 0 955.5 -1.9 24
2019-12-10 15:00:00 17.8 0 Calma 6 Este 0 956 -2.1 24
2019-12-10 14:00:00 14.6 2 Nordeste 9 Noroeste 0 956.4 -2.1 32
2019-12-10 13:00:00 13.3 0 Calma 21 Nordeste 0 957.4 -0.8 33
2019-12-10 12:00:00 10.8 8 Nordeste 27 Este 0 958.1 0 38
2019-12-10 11:00:00 8.5 9 Nordeste 30 Norte 0 958.5 0.2 46
2019-12-10 10:00:00 6.2 12 Este 32 Norte 0 958.2 0.3 62
2019-12-10 09:00:00 5.5 10 Nordeste 29 Este 0 958.1 0.6 65
2019-12-10 08:00:00 5.5 10 Nordeste 28 Este 0 958.3 0.3 72
2019-12-10 07:00:00 7.5 14 Este 31 Sudeste 0 957.9 -0.5 59
2019-12-10 06:00:00 8.8 13 Este 32 Este 0 957.5 -0.7 63
2019-12-10 05:00:00 8.4 7 Este 30 Este 0 958 -0.7 72
2019-12-10 04:00:00 9.3 10 Este 27 Sudeste 0 958.4 -1 75
2019-12-10 03:00:00 9 8 Este 23 Sudeste 0 958.2 -0.9 81
2019-12-10 02:00:00 9.5 6 Nordeste 18 Norte 0 958.7 -0.6 81
2019-12-10 01:00:00 8.9 2 Nordeste 15 Este 0 959.4 0.2 83
2019-12-10 00:00:00 9.1 0 Calma 5 Nordeste 0 959.1 0.1 84
2019-12-09 23:00:00 10.2 3 Oeste 7 Oeste 0 959.3 0.5 81
2019-12-09 22:00:00 11.5 4 Oeste 13 Oeste 0 959.2 0.7 78
2019-12-09 21:00:00 12.2 8 Oeste 15 Sudoeste 0 959 0.6 76
2019-12-09 20:00:00 11.9 7 Oeste 14 Noroeste 0 958.8 0.7 76
2019-12-09 19:00:00 12.8 5 Oeste 14 Oeste 0 958.5 0.7 71
2019-12-09 18:00:00 13.7 8 Oeste 19 Oeste 0 958.4 0.3 66
2019-12-09 17:00:00 14.7 7 Oeste 14 Oeste 0 958.1 -0.5 59
2019-12-09 16:00:00 15.6 3 Oeste 16 Noroeste 0 957.8 -1.5 51
2019-12-09 15:00:00 15.4 6 Noroeste 16 Oeste 0 958.1 -1.9 54
2019-12-09 14:00:00 14.4 7 Noroeste 15 Noroeste 0 958.6 -1.1 56
2019-12-09 13:00:00 13.5 2 Noroeste 6 Norte 0 959.3 -0.1 59
2019-12-09 12:00:00 11.9 3 Nordeste 6 Noroeste 0 960 0.9 63
2019-12-09 11:00:00 10.8 0 Calma 4 Oeste 0 959.7 1.4 71
2019-12-09 10:00:00 9.8 0 Calma 6 Sur 0 959.4 1.7 78
2019-12-09 09:00:00 9.4 0 Calma 9 Noroeste 0 959.1 1.4 80
2019-12-09 08:00:00 11.4 4 Oeste 12 Noroeste 0 958.3 0.7 72
2019-12-09 07:00:00 11.5 3 Sudoeste 5 Sudoeste 0 957.7 -0.4 72
2019-12-09 06:00:00 11.4 3 Oeste 8 Oeste 0 957.7 -0.3 69
2019-12-09 05:00:00 10.8 2 Sudoeste 10 Noroeste 0 957.6 -0.2 71
2019-12-09 04:00:00 11.3 0 Calma 10 Oeste 0 958.1 -0.1 68
2019-12-09 03:00:00 10.8 3 Noroeste 10 Noroeste 0 958 0 67
2019-12-09 02:00:00 12.1 3 Oeste 19 Oeste 0 957.8 0.2 61
2019-12-09 01:00:00 10.5 6 Oeste 14 Oeste 0 958.2 1.5 69
2019-12-09 00:00:00 9.4 6 Oeste 16 Noroeste 0 958 0.8 60
2019-12-08 23:00:00 11.5 5 Oeste 11 Oeste 0 957.6 0.8 58
2019-12-08 22:00:00 11.4 4 Sudeste 11 Noroeste 0 956.7 0 52
2019-12-08 21:00:00 12.3 6 Oeste 21 Oeste 0 957.2 1.2 47
2019-12-08 20:00:00 12.9 9 Oeste 22 Oeste 0 956.8 1.2 47
2019-12-08 19:00:00 13 9 Oeste 20 Oeste 0 956.7 1.3 47
2019-12-08 18:00:00 13.5 8 Oeste 22 Oeste 0 956 0.7 46
2019-12-08 17:00:00 13.8 6 Oeste 21 Noroeste 0 955.6 -0.3 44
2019-12-08 16:00:00 14.5 8 Noroeste 22 Noroeste 0 955.4 -1.4 40
2019-12-08 15:00:00 15.2 6 Noroeste 19 Noroeste 0 955.3 -2.6 37
2019-12-08 14:00:00 14.8 3 Oeste 10 Noroeste 0 955.9 -1.8 44
2019-12-08 13:00:00 10.8 2 Nordeste 8 Norte 0 956.8 -0.6 56
2019-12-08 12:00:00 8.9 3 Nordeste 9 Norte 0 957.9 1 63
2019-12-08 11:00:00 7 3 Nordeste 10 Este 0 957.7 1.2 72
2019-12-08 10:00:00 5.4 0 Calma 18 Este 0 957.4 1.2 84
2019-12-08 09:00:00 6.7 3 Este 9 Norte 0 956.9 1.3 84
2019-12-08 08:00:00 4.8 0 Calma 10 Sudeste 0 956.5 0.8 84
2019-12-08 07:00:00 4.8 0 Calma 10 Este 0 956.2 0.2 84
2019-12-08 06:00:00 5.8 3 Este 15 Sudeste 0 955.6 -0.5 84
2019-12-08 05:00:00 5.7 0 Calma 9 Norte 0 955.7 -0.2 85
2019-12-08 04:00:00 5.4 0 Calma 10 Sudeste 0 956 -0.1 84
2019-12-08 03:00:00 5.8 0 Calma 6 Sudeste 0 956.1 0.1 85
2019-12-08 02:00:00 6 0 Calma 6 Oeste 0 955.9 0.1 84
2019-12-08 01:00:00 7.4 2 Sudeste 6 Este 0 956.1 0.8 81
2019-12-08 00:00:00 8.3 0 Calma 5 Sur 0 956 0.9 78
2019-12-07 23:00:00 8.9 3 Sudeste 5 Sudoeste 0 955.8 1.2 76
2019-12-07 22:00:00 9.5 5 Noroeste 11 Noroeste 0 955.3 1.3 74
2019-12-07 21:00:00 10 4 Oeste 9 Oeste 0 955.1 1.4 69
2019-12-07 20:00:00 13 5 Oeste 18 Oeste 0 954.6 1.7 52
2019-12-07 19:00:00 13.5 8 Oeste 18 Oeste 0 954 1.5 49
2019-12-07 18:00:00 13.9 8 Oeste 14 Oeste 0 953.7 1.3 49
2019-12-07 17:00:00 14.1 4 Sudoeste 11 Oeste 0 952.9 0.1 48
2019-12-07 16:00:00 14.6 5 Oeste 12 Oeste 0 952.5 -1 43
2019-12-07 15:00:00 17.6 0 Calma 8 Noroeste 0 952.4 -1.9 36
2019-12-07 14:00:00 14 0 Calma 8 Norte 0 952.8 -1.7 44
2019-12-07 13:00:00 12.8 4 Nordeste 10 Este 0 953.5 -0.1 53
2019-12-07 12:00:00 11 6 Nordeste 20 Este 0 954.3 0.9 61
2019-12-07 11:00:00 9.2 10 Este 22 Este 0 954.5 1.6 67
2019-12-07 10:00:00 8.4 8 Este 20 Este 0 953.6 1.1 75
2019-12-07 09:00:00 7.3 7 Este 21 Sudeste 0 953.4 1.1 81
2019-12-07 08:00:00 7.9 7 Este 21 Este 0 952.9 0.7 78
2019-12-07 07:00:00 8.6 11 Este 23 Sudeste 0 952.5 0.2 75
2019-12-07 06:00:00 8.4 9 Este 20 Sudeste 0 952.3 0 75
2019-12-07 05:00:00 8.5 8 Este 22 Sudeste 0 952.2 0.2 74
2019-12-07 04:00:00 8.8 7 Este 19 Este 0 952.3 0.3 72
2019-12-07 03:00:00 9.7 5 Este 22 Este 0 952.3 0.3 67
2019-12-07 02:00:00 9.7 8 Este 19 Sudeste 0 952 0.4 66
2019-12-07 01:00:00 11.7 11 Sudeste 28 Sudeste 0 952 0.5 53
2019-12-07 00:00:00 12 12 Sudeste 24 Sudeste 0 952 0.9 52
2019-12-06 23:00:00 11.5 6 Sudeste 23 Sur 0 951.6 0.9 56
2019-12-06 22:00:00 13 10 Sur 26 Sudeste 0 951.5 1.6 47
2019-12-06 21:00:00 12.9 8 Sudeste 23 Sudeste 0 951.1 1.8 47
2019-12-06 20:00:00 13.4 6 Sudeste 13 Sudeste 0 950.7 1.7 49
2019-12-06 19:00:00 13.6 0 Calma 13 Sur 0 949.9 1.2 45
2019-12-06 18:00:00 13.8 9 Sur 12 Sudoeste 0 949.3 0.4 44
2019-12-06 17:00:00 13.9 6 Sur 10 Sur 0 949 -0.5 44
2019-12-06 16:00:00 15.4 6 Sudeste 14 Sudeste 0 948.7 -1.4 38
2019-12-06 15:00:00 16.5 5 Sudeste 18 Sudeste 0 948.9 -1.8 37
2019-12-06 14:00:00 14.7 10 Sudeste 26 Sudeste 0 949.5 -1.8 41
2019-12-06 13:00:00 14.4 14 Sudeste 31 Sudeste 0 950.1 -0.7 44
2019-12-06 12:00:00 13.1 12 Sudeste 26 Este 0 950.7 0.4 50
2019-12-06 11:00:00 11.6 13 Sudeste 34 Sudeste 0 951.3 1.8 54
2019-12-06 10:00:00 11.1 12 Sudeste 27 Norte 0.1 950.8 1.6 57
2019-12-06 09:00:00 10.8 10 Sudeste 24 Sudeste 0 950.3 2.1 59
2019-12-06 08:00:00 8.3 6 Sudeste 19 Sudeste 0 949.5 1.1 70
2019-12-06 07:00:00 7.5 9 Este 22 Sudeste 0 949.2 1 74
2019-12-06 06:00:00 8.8 9 Sudeste 20 Sudeste 0 948.2 -0.2 69
2019-12-06 05:00:00 8.4 6 Sudeste 19 Sudeste 0 948.4 -0.1 72
2019-12-06 04:00:00 8.1 3 Este 16 Sur 0 948.2 0.1 69
2019-12-06 03:00:00 9.6 4 Sudeste 13 Sudeste 0 948.4 0.2 67
2019-12-06 02:00:00 9.5 6 Sudeste 13 Este 0 948.5 0.3 68
2019-12-06 01:00:00 9.3 6 Sudeste 11 Sudeste 0 948.1 0.2 69
2019-12-06 00:00:00 9.9 4 Este 14 Sudeste 0 948.2 1.1 66
2019-12-05 23:00:00 9.9 2 Sudeste 9 Sudeste 0 948.2 1.6 66
2019-12-05 22:00:00 10.8 3 Sudeste 22 Sudeste 0 947.9 1.8 64
2019-12-05 21:00:00 10.8 3 Sudeste 10 Sudeste 0 947.1 1.7 65
2019-12-05 20:00:00 13.3 4 Sur 12 Sur 0.2 946.6 1.7 72
2019-12-05 19:00:00 11.7 0 Calma 8 Sur 0 946.1 1.6 56
2019-12-05 18:00:00 12.2 4 Este 11 Sudeste 0 945.4 -- 50
2019-12-05 17:00:00 12.4 0 Calma 7 Sudeste 0 944.9 -- 53
2019-12-05 16:00:00 12.3 0 Calma 12 Sur 0 944.5 -- 50
2019-12-05 15:00:00 -- 5 Sudeste -- -- -- -- -- --
2019-12-05 14:00:00 -- -- -- -- -- -- -- -- --
2019-12-05 13:00:00 -- -- -- -- -- -- -- -- --
2019-12-05 12:00:00 -- -- -- -- -- -- -- -- --
2019-12-05 11:00:00 -- -- -- -- -- -- -- -- --
2019-12-05 10:00:00 -- -- -- -- -- -- -- -- --
2019-12-05 09:00:00 -- -- -- -- -- -- -- -- --
2019-12-05 08:00:00 -- -- -- -- -- -- -- -- --
2019-12-05 07:00:00 -- -- -- -- -- -- -- -- --
2019-12-05 06:00:00 -- -- -- -- -- -- -- -- --
2019-12-05 05:00:00 -- -- -- -- -- -- -- -- --
2019-12-05 04:00:00 -- -- -- -- -- -- -- -- --
2019-12-05 03:00:00 -- -- -- -- -- -- -- -- --
2019-12-05 02:00:00 -- -- -- -- -- -- -- -- --
2019-12-05 01:00:00 -- -- -- -- -- -- -- -- --
2019-12-05 00:00:00 -- -- -- -- -- -- -- -- --
2019-12-04 23:00:00 -- -- -- -- -- -- -- -- --
2019-12-04 22:00:00 -- -- -- -- -- -- -- -- --
2019-12-04 21:00:00 -- -- -- -- -- -- -- -- --
2019-12-04 20:00:00 -- -- -- -- -- -- -- -- --
2019-12-04 19:00:00 -- -- -- -- -- -- -- -- --
2019-12-04 18:00:00 -- -- -- -- -- -- -- -- --
2019-12-04 17:00:00 -- -- -- -- -- -- -- -- --
2019-12-04 16:00:00 -- -- -- -- -- -- -- -- --
2019-12-04 15:00:00 -- -- -- -- -- -- -- -- --
2019-12-04 14:00:00 -- -- -- -- -- -- -- -- --
2019-12-04 13:00:00 -- -- -- -- -- -- -- -- --
2019-12-04 12:00:00 -- -- -- -- -- -- -- -- --
2019-12-04 11:00:00 -- -- -- -- -- -- -- -- --
2019-12-04 10:00:00 -- -- -- -- -- -- -- -- --
2019-12-04 09:00:00 -- -- -- -- -- -- -- -- --
2019-12-04 08:00:00 -- -- -- -- -- -- -- -- --
2019-12-04 07:00:00 -- -- -- -- -- -- -- -- --
2019-12-04 06:00:00 -- -- -- -- -- -- -- -- --
2019-12-04 05:00:00 -- -- -- -- -- -- -- -- --
2019-12-04 04:00:00 -- -- -- -- -- -- -- -- --
2019-12-04 03:00:00 -- -- -- -- -- -- -- -- --
2019-12-04 02:00:00 -- -- -- -- -- -- -- -- --
2019-12-04 01:00:00 -- -- -- -- -- -- -- -- --
2019-12-04 00:00:00 -- -- -- -- -- -- -- -- --
2019-12-03 23:00:00 -- -- -- -- -- -- -- -- --
2019-12-03 22:00:00 -- -- -- -- -- -- -- -- --
2019-12-03 21:00:00 -- -- -- -- -- -- -- -- --
2019-12-03 20:00:00 -- -- -- -- -- -- -- -- --
2019-12-03 19:00:00 -- -- -- -- -- -- -- -- --
2019-12-03 18:00:00 -- -- -- -- -- -- -- -- --
2019-12-03 17:00:00 -- -- -- -- -- -- -- -- --
2019-12-03 16:00:00 -- -- -- -- -- -- -- -- --
2019-12-03 15:00:00 -- -- -- -- -- -- -- -- --
2019-12-03 14:00:00 -- -- -- -- -- -- -- -- --
2019-12-03 13:00:00 -- -- -- -- -- -- -- -- --
2019-12-03 12:00:00 -- -- -- -- -- -- -- -- --
2019-12-03 11:00:00 -- -- -- -- -- -- -- -- --
2019-12-03 10:00:00 -- -- -- -- -- -- -- -- --
2019-12-03 09:00:00 -- -- -- -- -- -- -- -- --
2019-12-03 08:00:00 -- -- -- -- -- -- -- -- --
2019-12-03 07:00:00 -- -- -- -- -- -- -- -- --
2019-12-03 06:00:00 -- -- -- -- -- -- -- -- --
2019-12-03 05:00:00 -- -- -- -- -- -- -- -- --
2019-12-03 04:00:00 -- -- -- -- -- -- -- -- --
2019-12-03 03:00:00 -- -- -- -- -- -- -- -- --
2019-12-03 02:00:00 -- -- -- -- -- -- -- -- --
2019-12-03 01:00:00 -- -- -- -- -- -- -- -- --
2019-12-03 00:00:00 -- -- -- -- -- -- -- -- --
2019-12-02 23:00:00 -- -- -- -- -- -- -- -- --
2019-12-02 22:00:00 -- -- -- -- -- -- -- -- --
2019-12-02 21:00:00 -- -- -- -- -- -- -- -- --
2019-12-02 20:00:00 -- -- -- -- -- -- -- -- --
2019-12-02 19:00:00 -- -- -- -- -- -- -- -- --
2019-12-02 18:00:00 -- -- -- -- -- -- -- -- --
2019-12-02 17:00:00 -- -- -- -- -- -- -- -- --
2019-12-02 16:00:00 -- -- -- -- -- -- -- -- --
2019-12-02 15:00:00 -- -- -- -- -- -- -- -- --
2019-12-02 14:00:00 -- -- -- -- -- -- -- -- --
2019-12-02 13:00:00 -- -- -- -- -- -- -- -- --
2019-12-02 12:00:00 -- -- -- -- -- -- -- -- --
2019-12-02 11:00:00 8.6 2 Nordeste 14 Este 0 941.2 3.2 84
2019-12-02 10:00:00 7.6 6 Este 23 Norte 0 940.3 4.3 84
2019-12-02 09:00:00 9.8 10 Este 21 Este 0 939 0.6 84
2019-12-02 08:00:00 9.7 3 Sudeste 18 Sudeste 0 938 -0.3 84
2019-12-02 07:00:00 9.5 6 Sudeste 15 Sudeste 0.7 936 -1.7 84
2019-12-02 06:00:00 10.3 0 Calma 14 Sudeste 0.1 938.4 -0.2 84
2019-12-02 05:00:00 10.3 3 Sudeste 13 Norte 0 938.3 -0.5 84
2019-12-02 04:00:00 10 5 Este 12 Sudeste 0.2 937.7 -1.8 84
2019-12-02 03:00:00 10.1 5 Este 12 Este 0 938.6 -1.3 84
2019-12-02 02:00:00 10.6 3 Este 13 Norte 0.1 938.8 -1.5 84
2019-12-02 01:00:00 10.5 0 Calma 0 Calma 0 939.5 -0.9 84
2019-12-02 00:00:00 10.5 0 Calma 8 Sudeste 0 939.9 -0.5 84
2019-12-01 23:00:00 10.9 0 Calma 6 Sur 0 940.3 -0.3 84
2019-12-01 22:00:00 11.7 0 Calma 5 Oeste 0 940.4 1.5 84
2019-12-01 21:00:00 11.4 0 Calma 7 Noroeste 0.2 940.4 -0.8 84
2019-12-01 20:00:00 11.4 0 Calma 10 Noroeste 0.8 940.6 -0.8 84
2019-12-01 19:00:00 9.3 6 Noroeste 14 Oeste 3.7 938.9 -3.4 84
2019-12-01 18:00:00 11.1 4 Oeste 7 Oeste 0.2 941.2 -1.5 72
2019-12-01 17:00:00 11.7 3 Oeste 12 Noroeste 0 941.4 -2.3 62
2019-12-01 16:00:00 12.5 6 Noroeste 14 Oeste 0 942.3 -2 50
2019-12-01 15:00:00 13.1 6 Noroeste 17 Oeste 0 942.7 -2.7 45
2019-12-01 14:00:00 13.4 6 Oeste 22 Noroeste 0 943.7 -2.5 41
2019-12-01 13:00:00 13.5 4 Oeste 20 Noroeste 0 944.3 -1.9 44
2019-12-01 12:00:00 13.1 4 Oeste 15 Noroeste 0 945.4 -0.3 43
2019-12-01 11:00:00 12.8 4 Norte 9 Noroeste 0 946.2 -- 47
2019-12-01 10:00:00 11.1 0 Calma 10 Noroeste 0 946.2 -- 58
2019-12-01 09:00:00 9.9 0 Calma -- -- -- 945.7 -- 54
2019-12-01 08:00:00 -- -- -- -- -- -- -- -- --
2019-12-01 07:00:00 -- -- -- -- -- -- -- -- --
2019-12-01 06:00:00 -- -- -- -- -- -- -- -- --
2019-12-01 05:00:00 -- -- -- -- -- -- -- -- --
2019-12-01 04:00:00 -- -- -- -- -- -- -- -- --
2019-12-01 03:00:00 -- -- -- -- -- -- -- -- --
2019-12-01 02:00:00 -- -- -- -- -- -- -- -- --
2019-12-01 01:00:00 -- -- -- -- -- -- -- -- --
2019-12-01 00:00:00 -- -- -- -- -- -- -- -- --
2019-11-30 23:00:00 -- -- -- -- -- -- -- -- --
2019-11-30 22:00:00 -- -- -- -- -- -- -- -- --
2019-11-30 21:00:00 -- -- -- -- -- -- -- -- --
2019-11-30 20:00:00 -- -- -- -- -- -- -- -- --
2019-11-30 19:00:00 -- -- -- -- -- -- -- -- --
2019-11-30 18:00:00 -- -- -- -- -- -- -- -- --
2019-11-30 17:00:00 -- -- -- -- -- -- -- -- --
2019-11-30 16:00:00 -- -- -- -- -- -- -- -- --
2019-11-30 15:00:00 -- -- -- -- -- -- -- -- --
2019-11-30 14:00:00 -- -- -- -- -- -- -- -- --
2019-11-30 13:00:00 -- -- -- -- -- -- -- -- --
2019-11-30 12:00:00 -- -- -- -- -- -- -- -- --
2019-11-30 11:00:00 -- -- -- -- -- -- -- -- --
2019-11-30 10:00:00 -- -- -- -- -- -- -- -- --
2019-11-30 09:00:00 -- -- -- -- -- -- -- -- --
2019-11-30 08:00:00 -- -- -- -- -- -- -- -- --
2019-11-30 07:00:00 -- -- -- -- -- -- -- -- --
2019-11-30 06:00:00 -- -- -- -- -- -- -- -- --
2019-11-30 05:00:00 -- -- -- -- -- -- -- -- --
2019-11-30 04:00:00 -- -- -- -- -- -- -- -- --
2019-11-30 03:00:00 -- -- -- -- -- -- -- -- --
2019-11-30 02:00:00 -- -- -- -- -- -- -- -- --
2019-11-30 01:00:00 -- -- -- -- -- -- -- -- --
2019-11-30 00:00:00 -- -- -- -- -- -- -- -- --
2019-11-29 23:00:00 -- -- -- -- -- -- -- -- --
2019-11-29 22:00:00 -- -- -- -- -- -- -- -- --
2019-11-29 21:00:00 11.9 0 Calma 9 Oeste 0 953 0.7 65
2019-11-29 20:00:00 14.2 5 Oeste 14 Oeste 0 952.7 0.8 59
2019-11-29 19:00:00 14.8 6 Oeste 12 Oeste 0 952.4 0.7 56
2019-11-29 18:00:00 15.4 4 Oeste 9 Oeste 0 952.3 0.5 54
2019-11-29 17:00:00 16 5 Oeste 13 Oeste 0 951.9 -0.5 48
2019-11-29 16:00:00 17.4 5 Oeste 13 Noroeste 0 951.7 -1.5 40
2019-11-29 15:00:00 16.7 7 Noroeste 14 Noroeste 0 951.8 -1.8 43
2019-11-29 14:00:00 14.5 0 Calma 5 Nordeste 0 952.4 -1.3 47
2019-11-29 13:00:00 13.9 2 Nordeste 15 Norte 0 953.2 -0.4 54
2019-11-29 12:00:00 10.7 10 Nordeste 18 Nordeste 0 953.6 0.6 65
2019-11-29 11:00:00 9.3 7 Este 22 Este 0 953.7 1.1 67
2019-11-29 10:00:00 8.4 10 Este 23 Este 0 953.6 1.3 78
2019-11-29 09:00:00 6.3 6 Nordeste 19 Sudeste 0 953 1 84
2019-11-29 08:00:00 6.5 5 Este 18 Norte 0 952.6 1.1 82
2019-11-29 07:00:00 7.6 5 Nordeste 19 Este 0 952.3 0.6 82
2019-11-29 06:00:00 7.3 6 Este 27 Este 0 952 0.5 84
2019-11-29 05:00:00 8 10 Este 24 Este 0 951.5 0.2 79
2019-11-29 04:00:00 8.8 6 Nordeste 20 Este 0 951.7 0.1 81
2019-11-29 03:00:00 8.4 5 Nordeste 20 Sudeste 0 951.5 -0.3 84
2019-11-29 02:00:00 9.4 5 Este 18 Este 0 951.3 -0.5 81
2019-11-29 01:00:00 8.4 0 Calma -- -- 0 951.6 0.1 83
2019-11-29 00:00:00 9.6 0 Calma -- -- 0 951.8 0.8 78
2019-11-28 23:00:00 9.9 0 Calma -- -- 0 951.8 1 78
2019-11-28 22:00:00 10.7 0 Calma -- -- 0 951.5 1.3 72
2019-11-28 21:00:00 11.6 0 Calma 0 Calma 0 951 1.2 70
2019-11-28 20:00:00 12.8 0 Calma 0 Calma 0 950.8 1.3 63
2019-11-28 19:00:00 12.8 0 Calma 0 Calma 0 950.2 0.8 65
2019-11-28 18:00:00 12.9 0 Calma -- -- 0 949.8 0.1 64
2019-11-28 17:00:00 13.9 0 Calma 14 Oeste 0 949.5 -0.6 57
2019-11-28 16:00:00 14.2 9 Noroeste 18 Noroeste 0 949.4 -1.5 50
2019-11-28 15:00:00 14.3 0 Calma 0 Calma 0 949.7 -1.9 49
2019-11-28 14:00:00 13.4 0 Calma -- -- 0 950.1 -1.8 60
2019-11-28 13:00:00 11.4 0 Calma -- -- 0 950.9 -0.6 81
2019-11-28 12:00:00 9.4 0 Calma 3 Norte 0 951.6 0.4 84
2019-11-28 11:00:00 8.8 0 Calma -- -- 0 951.9 1.7 84
2019-11-28 10:00:00 8.3 0 Calma 6 Sudeste 0 951.5 2 84
2019-11-28 09:00:00 8.1 0 Calma -- -- 0 951.2 2.1 84
2019-11-28 08:00:00 8.2 0 Calma 0 Calma 0 950.2 0.7 84
2019-11-28 07:00:00 9.1 0 Calma -- -- 0 949.5 0.3 84
2019-11-28 06:00:00 9.5 0 Calma -- -- 0 949.1 0.1 80
2019-11-28 05:00:00 10.4 0 Calma -- -- 0 949.5 0.6 79
2019-11-28 04:00:00 10.8 0 Calma -- -- 0 949.2 0 81
2019-11-28 03:00:00 11.2 0 Calma 5 Noroeste 0 949 -0.3 82
2019-11-28 02:00:00 11.4 3 Noroeste 12 Noroeste 0 948.9 0 81
2019-11-28 01:00:00 12.2 3 Noroeste 12 Noroeste 0 949.2 0.3 76
2019-11-28 00:00:00 12.1 0 Calma 0 Calma 0 949.3 1.1 74
2019-11-27 23:00:00 12.7 0 Calma 12 Oeste 0 948.9 0.8 67
2019-11-27 22:00:00 13.2 0 Calma 18 Oeste 0 948.9 1.8 61
2019-11-27 21:00:00 13.6 3 Oeste 21 Oeste 0 948.2 1.2 54
2019-11-27 20:00:00 13 0 Calma 14 Oeste 0 948.1 1.3 63
2019-11-27 19:00:00 13.4 3 Oeste 20 Oeste 0 947.1 0.8 57
2019-11-27 18:00:00 13.6 6 Oeste 29 Noroeste 0 947 0.4 57
2019-11-27 17:00:00 14.7 8 Noroeste 26 Noroeste 0 946.8 0 49
2019-11-27 16:00:00 14.3 4 Noroeste 30 Noroeste 0 946.3 -1.1 54
2019-11-27 15:00:00 14.8 8 Noroeste 36 Noroeste 0 946.6 -1.6 56
2019-11-27 14:00:00 14.8 4 Oeste 31 Oeste 0 946.8 -1.3 52
2019-11-27 06:00:00 13 4 Oeste 21 Noroeste 0 945.9 0.1 76
2019-11-27 05:00:00 13.3 10 Noroeste 32 Oeste 0.1 945.3 -0.8 83
2019-11-27 04:00:00 12.7 0 Calma 7 Este 0.1 945.8 -0.5 84
2019-11-27 03:00:00 12.4 0 Calma 12 Oeste 0 945.8 -0.7 81
2019-11-27 02:00:00 12.9 2 Oeste 25 Oeste 0 946.1 -0.5 81
2019-11-27 01:00:00 12.1 2 Noroeste 13 Oeste 0 946.3 -0.5 81
2019-11-27 00:00:00 12.3 3 Oeste 11 Oeste 0 946.5 -0.2 78
2019-11-26 23:00:00 13.5 4 Oeste 21 Oeste 0 946.6 -0.2 68
2019-11-26 22:00:00 14.4 8 Oeste 29 Oeste 0 946.8 0.3 58
2019-11-26 21:00:00 14.6 10 Oeste 34 Sudoeste 0 946.7 0.5 62
2019-11-26 20:00:00 14.7 10 Oeste 24 Oeste 0 946.8 0.5 69
2019-11-26 19:00:00 14.1 0 Calma 8 Oeste 0 946.5 0.2 81
2019-11-26 18:00:00 14.9 5 Oeste 11 Oeste 0 946.2 -0.6 74
2019-11-26 17:00:00 14.8 0 Calma -- -- 0 946.3 -1.3 74
2019-11-26 16:00:00 14.7 0 Calma -- -- 0 946.3 -1.9 72
2019-11-26 15:00:00 14.3 0 Calma 10 Nordeste 0 946.8 -2.2 73
2019-11-26 14:00:00 13.3 5 Nordeste 13 Norte 0 947.6 -1.6 84
2019-11-26 13:00:00 12.8 6 Este 21 Sudeste 0 948.2 -0.9 84
2019-11-26 12:00:00 12 5 Este 21 Norte 0 949 0.3 85
2019-11-26 11:00:00 11.9 6 Nordeste 16 Norte 0 949.2 1.1 84
2019-11-26 10:00:00 11.8 4 Nordeste 12 Este 0 949.1 1.1 84
2019-11-26 09:00:00 11.2 2 Nordeste 7 Norte 0 948.7 0.7 84
2019-11-26 08:00:00 11.4 0 Calma 3 Nordeste 0 948.1 0.2 84
2019-11-26 07:00:00 11.3 0 Calma 10 Este 0 948 -0.4 84
2019-11-26 06:00:00 11.2 3 Este 11 Sudeste 0 948 -0.4 84
2019-11-26 05:00:00 11.6 0 Calma 9 Este 0 947.9 -0.2 84
2019-11-26 04:00:00 11.8 0 Calma -- -- 0 948.4 -0.3 84
2019-11-26 03:00:00 11.8 0 Calma 6 Sudoeste 0 948.4 -0.6 84
2019-11-26 02:00:00 12.8 0 Calma 6 Oeste 0.1 948.1 -0.8 84
2019-11-26 01:00:00 12.6 0 Calma 7 Sur 0 948.7 0.5 84
2019-11-26 00:00:00 11.8 0 Calma 5 Sudeste 0 949 4.6 84
2019-11-25 23:00:00 11.4 0 Calma 9 Este 0 948.9 2.8 84
2019-11-25 22:00:00 10.8 2 Nordeste 8 Norte 0 948.2 2.3 84
2019-11-25 21:00:00 10.8 0 Calma 11 Norte 0.5 944.4 -1.4 84
2019-11-25 20:00:00 10.9 0 Calma 10 Este 0.3 946.1 -0.3 84
2019-11-25 19:00:00 10.9 0 Calma 9 Este 0.4 945.9 0.4 84
2019-11-25 18:00:00 12.5 2 Este 9 Este 0.4 945.8 -0.6 84
2019-11-25 17:00:00 10.1 0 Calma 5 Este 0.4 946.4 0.1 84
2019-11-25 16:00:00 10.8 0 Calma 10 Sudeste 1 945.5 -2.4 84
2019-11-25 15:00:00 9.8 0 Calma 6 Nordeste 0.5 946.4 -3.1 85
2019-11-25 14:00:00 10.1 0 Calma 11 Este 0.5 946.3 -4.1 85
2019-11-25 13:00:00 8.7 4 Nordeste 14 Norte 0.1 947.9 -2.8 85
2019-11-25 12:00:00 8.5 4 Nordeste 10 Nordeste 0.3 949.5 -1 85
2019-11-25 11:00:00 9.9 0 Calma 9 Nordeste 0.2 950.4 0.5 85
2019-11-25 10:00:00 9.4 3 Nordeste 9 Nordeste 0 950.7 0.9 85
2019-11-25 09:00:00 7.7 3 Este 12 Norte 0 950.5 0.9 83
2019-11-25 08:00:00 7.5 4 Este 17 Nordeste 0 949.9 0.4 81
2019-11-25 07:00:00 7 0 Calma 8 Norte 0 949.8 0.3 84
2019-11-25 06:00:00 7.3 0 Calma 16 Nordeste 0 949.6 -0.2 84
2019-11-25 05:00:00 7.4 2 Norte 7 Norte 0 949.5 -0.4 84
2019-11-25 04:00:00 7.5 0 Calma 5 Nordeste 0 949.5 -0.6 83
2019-11-25 03:00:00 8 0 Calma 7 Sudeste 0 949.8 -0.6 81
2019-11-25 02:00:00 8.1 0 Calma 5 Sudeste 0 949.9 -0.4 78
2019-11-25 01:00:00 9.2 0 Calma 8 Oeste 0 950.1 -0.3 75
2019-11-25 00:00:00 10.5 3 Oeste 6 Oeste 0 950.4 0.3 67
2019-11-24 23:00:00 10 3 Noroeste 8 Oeste 0 950.3 0.5 68
2019-11-24 22:00:00 9.6 3 Oeste 7 Oeste 0 950.4 1.6 70
2019-11-24 21:00:00 9.2 2 Norte 16 Oeste 0 950.1 2 68
2019-11-24 20:00:00 10.1 7 Oeste 22 Oeste 0 949.8 1.8 61
2019-11-24 19:00:00 10.3 8 Oeste 18 Oeste 0 948.8 1 58
2019-11-24 18:00:00 10.5 6 Oeste 19 Noroeste 0 948.1 0.7 54
2019-11-24 17:00:00 11.1 7 Oeste 22 Oeste 0 948 0.1 49
2019-11-24 16:00:00 12.1 10 Noroeste 21 Noroeste 0 947.8 -0.8 45
2019-11-24 15:00:00 11.9 9 Noroeste 19 Oeste 0 947.4 -1.8 47
2019-11-24 14:00:00 11.5 6 Noroeste 19 Oeste 0 947.9 -1.3 50
2019-11-24 13:00:00 11.7 4 Oeste 13 Oeste 0 948.6 -0.7 50
2019-11-24 12:00:00 9.6 3 Oeste 8 Noroeste 0 949.2 0.4 59
2019-11-24 11:00:00 9.2 0 Calma 11 Noroeste 0 949.2 1.2 65
2019-11-24 10:00:00 7.3 7 Noroeste 17 Oeste 0 949.3 2.5 76
2019-11-24 09:00:00 5.7 5 Noroeste 19 Oeste 0 948.8 2.5 80
2019-11-24 08:00:00 4.9 5 Oeste 13 Oeste 0 948 1.8 84
2019-11-24 07:00:00 5.2 6 Noroeste 14 Oeste 0 946.8 0.7 83
2019-11-24 06:00:00 5.7 5 Noroeste 14 Oeste 0 946.3 0.4 78
2019-11-24 05:00:00 7.4 3 Oeste 14 Oeste 0 946.2 0 68
2019-11-24 04:00:00 6.8 0 Calma 6 Sudoeste 0 946.1 -0.1 75
2019-11-24 03:00:00 7.1 0 Calma 20 Oeste 0 945.9 0.4 65
2019-11-24 02:00:00 9.1 8 Oeste 24 Oeste 0 946.2 0.9 56
2019-11-24 01:00:00 9.6 12 Oeste 25 Oeste 0 946.2 1.1 54
2019-11-24 00:00:00 9.6 9 Oeste 33 Oeste 0 945.5 1.3 52
2019-11-23 23:00:00 9.9 13 Oeste 30 Oeste 0 945.3 1.3 49
2019-11-23 22:00:00 10.5 10 Oeste 31 Oeste 0 945.1 2.6 48
2019-11-23 21:00:00 10.3 11 Oeste 31 Oeste 0 944.2 3.3 48
2019-11-23 20:00:00 11 8 Oeste 30 Oeste 0 944 3.4 49
2019-11-23 19:00:00 10.9 10 Oeste 41 Oeste 0 942.5 2.7 50
2019-11-23 18:00:00 11.3 15 Oeste 41 Oeste 0 940.9 1.4 49
2019-11-23 17:00:00 11.5 13 Oeste 41 Oeste 0 940.6 1 50
2019-11-23 16:00:00 11.4 15 Oeste 39 Oeste 0 939.8 0.2 50
2019-11-23 15:00:00 11.4 14 Oeste 47 Oeste 0 939.5 -0.1 50
2019-11-23 14:00:00 11 16 Oeste 42 Noroeste 0 939.6 0.6 52
2019-11-23 13:00:00 10.9 16 Oeste 36 Oeste 0 939.6 1.5 55
2019-11-23 12:00:00 10.6 15 Oeste 42 Oeste 0 939.6 2.9 56
2019-11-23 11:00:00 10.2 15 Noroeste 45 Noroeste 0 939 3.9 62
2019-11-23 10:00:00 9.7 12 Oeste 45 Noroeste 0 938.1 8.3 65
2019-11-23 09:00:00 9.3 15 Oeste 39 Oeste 0.1 936.7 3.6 71
2019-11-23 08:00:00 9.7 13 Oeste 41 Oeste 0.3 935.1 1.6 78
2019-11-23 07:00:00 9.1 13 Oeste 60 Oeste 1.9 929.8 -3.7 80
2019-11-23 06:00:00 9.4 17 Oeste 46 Oeste 0.6 933.1 -0.6 78
2019-11-23 05:00:00 11.4 17 Oeste 52 Noroeste 0 933.5 0 57
2019-11-23 04:00:00 11 18 Oeste 51 Sudoeste 0 933.5 -0.6 62
2019-11-23 03:00:00 11.7 14 Oeste 48 Oeste 0 933.7 0.2 59
2019-11-23 02:00:00 12.1 12 Oeste 36 Oeste 0 933.5 -0.2 60
2019-11-23 01:00:00 12.4 15 Oeste 48 Oeste 0 934.1 0.6 56
2019-11-23 00:00:00 12.5 14 Oeste 44 Noroeste 0 933.5 1.7 56
2019-11-22 23:00:00 12.2 14 Oeste 50 Oeste 0 933.7 7.1 58
2019-11-22 22:00:00 12.5 22 Oeste 50 Oeste 0 933.5 7.1 62
2019-11-22 21:00:00 13.2 13 Oeste 59 Noroeste 1.8 931.8 2.4 82
2019-11-22 20:00:00 17 15 Oeste 44 Noroeste 5.9 926.6 -3.9 81
2019-11-22 19:00:00 16.5 6 Oeste 58 Oeste 4 926.4 -4.9 80
2019-11-22 18:00:00 15.1 18 Oeste 48 Oeste 0.6 929.4 -2.3 65
2019-11-22 17:00:00 16.1 5 Oeste 38 Oeste 0 930.5 -2.5 56
2019-11-22 16:00:00 16.8 4 Sudoeste 21 Oeste 0.4 931.3 -3.5 58
2019-11-22 15:00:00 16.2 9 Noroeste 22 Oeste 0.1 931.7 -4.3 56
2019-11-22 14:00:00 14.8 3 Nordeste 21 Sudoeste 0.5 933 -3.7 65
2019-11-22 13:00:00 14.2 0 Calma 23 Oeste 0.3 934.8 -1.5 76
2019-11-22 12:00:00 13.4 2 Este 14 Norte 1.1 936 4.4 83
2019-11-22 11:00:00 12.6 5 Nordeste 18 Norte 0 936.7 6.3 84
2019-11-22 10:00:00 12.2 0 Calma 22 Oeste 0.3 936.3 3.1 84
2019-11-22 09:00:00 12.9 6 Sur 27 Sudoeste 4.3 931.6 -6.4 83
2019-11-22 08:00:00 12.8 2 Este 17 Nordeste 2.8 930.4 -7.8 84
2019-11-22 07:00:00 12.5 5 Nordeste 21 Nordeste 3.2 933.2 -5.4 83
2019-11-22 06:00:00 11.1 4 Sudeste 15 Este 0.1 938 -1 84
2019-11-22 05:00:00 11.2 5 Sudeste 13 Sudeste 0 938.2 -1.1 84
2019-11-22 04:00:00 10.9 0 Calma 13 Norte 0.1 938.6 -1 84
2019-11-22 03:00:00 11.3 4 Este 14 Este 0 939 -0.8 84
2019-11-22 02:00:00 10.7 0 Calma 5 Sudoeste 0 939.3 -0.7 84
2019-11-22 01:00:00 10.8 0 Calma 7 Sudoeste 0 939.6 -0.3 84
2019-11-22 00:00:00 11.3 0 Calma 12 Este 0.1 939.8 0.4 84
2019-11-21 23:00:00 11.5 0 Calma 10 Este 0 940 0.4 84
2019-11-21 22:00:00 13.6 2 Este 10 Este 0 939.9 1 84
2019-11-21 21:00:00 13.6 0 Calma 7 Oeste 0.5 939.4 0.8 83
2019-11-21 20:00:00 14.2 2 Oeste 10 Nordeste 0.1 939.6 0.5 83
2019-11-21 19:00:00 13.5 0 Calma 7 Noroeste 0.1 938.9 -0.8 84
2019-11-21 18:00:00 11.5 0 Calma 7 Sudeste 0.8 938.6 -1.5 83
2019-11-21 17:00:00 13 0 Calma 10 Este 0.2 939.1 -1.6 82
2019-11-21 16:00:00 11.8 5 Este 16 Este 0.2 939.7 -1.8 78
2019-11-21 15:00:00 11.6 6 Nordeste 14 Este 0 940.1 -2 74
2019-11-21 14:00:00 11.3 8 Este 15 Este 0 940.7 -0.5 76
2019-11-21 13:00:00 10.3 7 Nordeste 18 Este 0 941.5 0.2 81
2019-11-21 12:00:00 9.6 6 Este 15 Este 0 942.1 1.1 84
2019-11-21 11:00:00 10 6 Nordeste 16 Este 0.5 941.2 0.5 84
2019-11-21 10:00:00 10.6 8 Nordeste 22 Norte 0.1 941.3 0.7 84
2019-11-21 09:00:00 10.2 2 Sudeste 15 Norte 0.1 941 0 84
2019-11-21 08:00:00 -- -- -- -- -- -- -- -- --
2019-11-21 07:00:00 -- -- -- -- -- -- -- -- --
2019-11-21 06:00:00 -- -- -- -- -- -- -- -- --
2019-11-21 05:00:00 -- -- -- -- -- -- -- -- --
2019-11-21 04:00:00 -- -- -- -- -- -- -- -- --
2019-11-21 03:00:00 -- -- -- -- -- -- -- -- --
2019-11-21 02:00:00 -- -- -- -- -- -- -- -- --
2019-11-21 01:00:00 -- -- -- -- -- -- -- -- --
2019-11-21 00:00:00 -- -- -- -- -- -- -- -- --
2019-11-20 23:00:00 -- -- -- -- -- -- -- -- --
2019-11-20 22:00:00 -- -- -- -- -- -- -- -- --
2019-11-20 21:00:00 7.7 2 Nordeste 10 Norte 0 941.6 1.9 84
2019-11-20 20:00:00 7.8 0 Calma 13 Sudeste 0 941.2 2 84
2019-11-20 19:00:00 9 5 Sudeste 14 Sudeste 0.1 940.7 -0.5 80
2019-11-20 18:00:00 9.7 5 Este 17 Este 0.6 939.7 -2.1 80
2019-11-20 17:00:00 8.1 4 Nordeste 23 Este 1.4 939.2 -2.7 77
2019-11-20 16:00:00 8.5 6 Sudeste 16 Sudeste 0.3 941.2 -1.6 69
2019-11-20 15:00:00 9.3 4 Nordeste 14 Este 0 941.8 -2.1 61
2019-11-20 14:00:00 8.7 5 Este 13 Este 0.2 941.9 -2.4 71
2019-11-20 13:00:00 8.6 0 Calma 11 Nordeste 0 942.8 -1.5 67
2019-11-20 12:00:00 7.8 0 Calma 9 Nordeste 0 943.9 -0.2 64
2019-11-20 11:00:00 7.1 5 Nordeste 17 Sudeste 0 944.3 0.5 62
2019-11-20 10:00:00 6.7 2 Nordeste 10 Norte 0 944.3 0.6 73
2019-11-20 09:00:00 2.8 0 Calma 16 Sudeste 0 944.1 0.1 82
2019-11-20 08:00:00 5.1 4 Sudeste 21 Sudeste 0 943.8 -0.3 77
2019-11-20 07:00:00 5.1 10 Este 23 Este 0 943.7 -1 79
2019-11-20 06:00:00 5.2 8 Este 20 Este 0 944 -0.9 81
2019-11-20 05:00:00 5.4 0 Calma 10 Este 0 944.1 -0.9 78
2019-11-20 04:00:00 6.8 6 Este 12 Este 0 944.7 -0.9 69
2019-11-20 03:00:00 7 3 Sudeste 19 Este 0 944.9 -1 70
2019-11-20 02:00:00 7.7 12 Este 20 Este 0 945 -1.4 66
2019-11-20 01:00:00 8.1 6 Este 17 Este 0 945.6 -1 65
2019-11-20 00:00:00 8.1 0 Calma 10 Este 0 945.9 -0.6 63
2019-11-19 23:00:00 8.3 0 Calma 3 Sudeste 0 946.4 0 61
2019-11-19 22:00:00 9.2 0 Calma 8 Oeste 0 946.6 0.1 59
2019-11-19 21:00:00 10 4 Oeste 13 Oeste 0 946.5 0.4 50
2019-11-19 20:00:00 10.2 4 Oeste 14 Oeste 0 946.4 0.4 47
2019-11-19 19:00:00 10.4 6 Sudoeste 13 Oeste 0 946.5 0.2 40
2019-11-19 18:00:00 10.1 5 Sudoeste 10 Oeste 0 946.1 -0.7 43
2019-11-19 17:00:00 11.5 4 Oeste 9 Oeste 0 946 -1.5 36
2019-11-19 16:00:00 12.9 4 Oeste 11 Noroeste 0 946.3 -2 30
2019-11-19 15:00:00 13.4 4 Noroeste 12 Noroeste 0 946.8 -2.4 31
2019-11-19 14:00:00 10.6 2 Nordeste 5 Nordeste 0 947.5 -2.2 44
2019-11-19 13:00:00 9.1 4 Nordeste 9 Este 0 948.3 -1.6 50
2019-11-19 12:00:00 8.3 4 Nordeste 16 Sudeste 0 949.2 -0.4 50
2019-11-19 11:00:00 6.2 6 Nordeste 19 Este 0 949.7 0.4 65
2019-11-19 10:00:00 3 9 Nordeste 27 Este 0 949.9 0.8 78
2019-11-19 09:00:00 2.4 7 Este 19 Este 0 949.6 1 80
2019-11-19 08:00:00 2.5 3 Norte 11 Sudeste 0 949.3 0.9 82
2019-11-19 07:00:00 2.7 0 Calma 17 Este 0 949.1 0.6 81
2019-11-19 06:00:00 3.8 6 Este 18 Este 0 948.6 0 75
2019-11-19 05:00:00 3.2 9 Nordeste 21 Norte 0 948.4 -0.4 80
2019-11-19 04:00:00 4.3 11 Este 24 Este 0 948.5 -0.7 74
2019-11-19 03:00:00 3 0 Calma 11 Este 0 948.6 -0.6 82